Terminal Aerodrome Forecast
Issued by NWS Wilmington, OH

Current Version | Previous Version | Text Only | Print | Product List | Glossary Off
Versions: 1 2 3 4 5 6 7 8 9 10 11 12 13 14 15 16 17 18 19 20 21 22 23 24 25 26 27 28 29

000
FTUS41 KILN 250200 AAA
TAFCVG
TAF AMD
KCVG 250212Z 2502/2606 27011G19KT P6SM VCSH BKN017 OVC024
     FM250800 25012G20KT P6SM VCSH OVC022
     FM251300 23010KT P6SM BKN025
     FM260000 18006KT P6SM BKN025=

USA.gov is the U.S. government's official web portal to all federal, state and local government web resources and services.